Latest Weather Observations for Samuel Hill

IDQ60801

Issued at 10:32 pm EST Monday 22 December 2014 (issued every 30 minutes, with the page automatically refreshed every 10 minutes)

About weather observations | Map of weather stations | Latest weather observations for QLD | Other Formats
Station Details ID: 033308 Name: SAMUEL HILL AERO Lat: -22.74 Lon: 150.66 Height: 31.0 m
Data from the previous 72 hours. | See also: Recent months at Samuel Hill
Date/Time
EST
Temp
°C
App
Temp
°C
Dew
Point
Rel
Hum
%
Delta-T
°C
Wind Press
QNH
hPa
Press
MSL
hPa
Rain
since 9 am
mm
Dir
 
Spd
km/h
Gust
km/h
Spd
kts
Gust
kts
22/10:30pm 24.3 24.7 18.2 68 3.8 ESE 13 20 7 11 1014.8 1014.6 0.0
22/10:00pm 24.2 25.2 18.6 71 3.5 ESE 11 19 6 10 1014.8 1014.6 0.0
22/09:30pm 24.0 25.0 18.6 72 3.4 SE 11 19 6 10 1014.7 1014.5 0.0
22/09:00pm 24.0 25.7 19.3 75 3.0 ESE 9 20 5 11 1014.5 1014.3 0.0
22/08:30pm 23.9 25.9 19.2 75 3.0 SE 7 11 4 6 1014.4 1014.2 0.0
22/08:00pm 24.1 25.7 19.2 74 3.1 ESE 9 17 5 9 1014.2 1014.0 0.0
22/07:30pm 24.4 25.9 19.0 72 3.4 ESE 9 17 5 9 1014.1 1013.9 0.0
22/07:00pm 24.4 25.8 18.6 70 3.7 ESE 9 15 5 8 1013.8 1013.6 0.0
22/06:30pm 25.0 25.4 18.2 66 4.3 ESE 13 19 7 10 1013.5 1013.3 0.0
22/06:00pm 25.7 25.5 18.6 65 4.5 ESE 17 24 9 13 1013.3 1013.1 0.0
22/05:30pm 26.1 26.4 18.8 64 4.7 E 15 26 8 14 1013.1 1012.9 0.0
22/05:00pm 26.5 26.3 18.6 62 5.0 ESE 17 28 9 15 1013.0 1012.8 0.0
22/04:30pm 26.9 26.6 18.2 59 5.5 ESE 17 28 9 15 1012.9 1012.7 0.0
22/04:00pm 27.7 26.6 17.8 54 6.3 ESE 20 32 11 17 1012.6 1012.4 0.0
22/03:30pm 28.0 28.0 19.0 58 5.8 ESE 17 30 9 16 1012.7 1012.5 0.0
22/03:00pm 27.8 26.8 17.9 54 6.3 ESE 20 32 11 17 1013.2 1013.0 0.0
22/02:30pm 28.6 28.2 19.0 56 6.2 SE 19 33 10 18 1013.5 1013.3 0.0
22/02:00pm 27.6 26.6 18.0 55 6.1 ESE 20 30 11 16 1014.0 1013.8 0.0
22/01:30pm 28.1 27.1 17.9 54 6.5 SE 20 32 11 17 1014.3 1014.1 0.0
22/01:00pm 27.8 26.4 17.9 54 6.3 ESE 22 37 12 20 1014.5 1014.3 0.0
22/12:30pm 28.4 26.4 17.3 51 7.0 ESE 24 43 13 23 1014.7 1014.5 0.0
22/12:00pm 28.3 26.2 16.2 47 7.5 SE 22 43 12 23 1015.1 1014.9 0.0
22/11:30am 28.2 26.1 16.1 47 7.5 SE 22 32 12 17 1015.1 1014.9 0.0
22/11:00am 28.2 26.6 16.5 49 7.3 SE 20 32 11 17 1015.5 1015.3 0.0
22/10:30am 27.9 26.8 17.7 53 6.5 ESE 20 32 11 17 1015.7 1015.5 0.0
22/10:00am 27.2 26.3 18.2 58 5.7 ESE 20 32 11 17 1015.6 1015.4 0.0
22/09:30am 27.3 26.2 17.8 56 6.0 ESE 20 32 11 17 1015.6 1015.4 0.0
22/09:00am 26.1 25.3 18.0 61 5.1 ESE 19 30 10 16 1015.8 1015.6 0.0
22/08:30am 26.7 26.7 18.0 59 5.5 E 15 24 8 13 1015.6 1015.4 0.0
22/08:00am 26.7 25.7 18.0 59 5.5 E 20 32 11 17 1015.4 1015.2 0.0
22/07:30am 25.8 27.5 19.4 67 4.1 ESE 9 15 5 8 1015.2 1015.0 0.0
22/07:00am 24.8 26.9 19.0 70 3.7 SE 6 19 3 10 1014.8 1014.6 0.0
22/06:00am 21.0 24.3 19.1 89 1.2 CALM 0 0 0 0 1014.1 1013.9 0.0
22/05:30am 19.7 22.7 18.5 93 0.7 CALM 0 0 0 0 1013.9 1013.7 0.0
22/05:00am 19.6 22.5 18.3 92 0.8 CALM 0 0 0 0 1013.5 1013.3 0.0
22/04:30am 19.8 22.9 18.6 93 0.7 CALM 0 0 0 0 1013.2 1013.0 0.0
22/04:00am 19.6 22.5 18.1 91 0.9 CALM 0 0 0 0 1013.0 1012.8 0.0
22/03:30am 20.3 23.4 18.6 90 1.1 CALM 0 6 0 3 1013.2 1013.0 0.0
22/03:00am 20.2 23.2 18.5 90 1.1 CALM 0 6 0 3 1013.2 1013.0 0.0
22/02:30am 21.1 23.4 18.5 85 1.6 SE 4 7 2 4 1013.6 1013.4 0.0
22/02:00am 21.4 23.3 18.6 84 1.8 SSE 6 9 3 5 1013.8 1013.6 0.0
22/01:30am 22.1 24.8 18.7 81 2.1 SE 2 7 1 4 1014.2 1014.0 0.0
22/01:00am 22.8 24.6 18.8 78 2.5 ESE 7 7 4 4 1014.5 1014.3 0.0
22/12:30am 23.2 25.4 19.1 78 2.6 E 6 9 3 5 1014.8 1014.6 0.0
22/12:00am 23.8 25.6 19.5 77 2.8 ESE 9 13 5 7 1015.1 1014.9 0.0
 
Date/Time
EST
Temp
°C
App
Temp
°C
Dew
Point
Rel
Hum
%
Delta-T
°C
Wind Press
QNH
hPa
Press
MSL
hPa
Rain
since 9 am
mm
Dir
 
Spd
km/h
Gust
km/h
Spd
kts
Gust
kts
21/11:30pm 23.9 25.8 19.8 78 2.6 E 9 17 5 9 1015.2 1015.0 0.0
21/11:00pm 24.0 25.7 20.1 79 2.5 ESE 11 19 6 10 1015.5 1015.3 0.0
21/10:30pm 23.9 25.8 19.8 78 2.6 E 9 11 5 6 1015.5 1015.3 0.0
21/10:00pm 23.7 25.5 19.6 78 2.6 E 9 13 5 7 1015.4 1015.2 0.0
21/09:30pm 23.9 25.7 19.6 77 2.8 E 9 11 5 6 1015.2 1015.0 0.0
21/09:00pm 24.2 26.2 19.9 77 2.8 E 9 19 5 10 1015.1 1014.9 0.0
21/08:30pm 23.6 26.0 20.1 81 2.3 ESE 7 11 4 6 1015.0 1014.8 0.0
21/08:00pm 23.8 26.3 19.9 79 2.5 ESE 6 11 3 6 1015.1 1014.9 0.0
21/07:30pm 24.1 26.5 20.0 78 2.7 ESE 7 9 4 5 1014.8 1014.6 0.0
21/07:00pm 24.7 26.6 19.8 74 3.2 ESE 9 17 5 9 1014.5 1014.3 0.0
21/06:30pm 25.4 26.8 19.5 70 3.8 E 11 19 6 10 1014.1 1013.9 0.0
21/06:00pm 26.2 27.1 19.3 65 4.4 E 13 19 7 10 1013.7 1013.5 0.0
21/05:30pm 26.9 27.2 19.5 64 4.8 ENE 17 24 9 13 1013.4 1013.2 0.0
21/05:00pm 27.3 27.1 18.6 59 5.6 ENE 17 26 9 14 1013.2 1013.0 0.0
21/04:30pm 28.0 27.8 18.4 56 6.1 ENE 17 24 9 13 1013.3 1013.1 0.0
21/04:00pm 28.5 28.7 18.6 55 6.4 SE 15 26 8 14 1013.4 1013.2 0.0
21/03:30pm 28.0 27.8 18.4 56 6.1 ESE 17 24 9 13 1013.5 1013.3 0.0
21/03:00pm 28.0 27.8 18.4 56 6.1 SE 17 24 9 13 1013.6 1013.4 0.0
21/02:30pm 28.6 28.7 19.2 56 6.1 ESE 17 24 9 13 1013.9 1013.7 0.0
21/02:00pm 28.0 28.3 19.5 60 5.5 ESE 17 24 9 13 1014.3 1014.1 0.0
21/01:30pm 28.7 29.4 20.4 60 5.5 E 17 24 9 13 1014.4 1014.2 0.0
21/01:00pm 29.0 29.7 21.2 62 5.2 ESE 19 28 10 15 1014.7 1014.5 0.0
21/12:30pm 28.8 29.1 20.3 60 5.6 ESE 19 28 10 15 1015.1 1014.9 0.0
21/12:00pm 28.7 28.6 19.9 59 5.8 ESE 20 30 11 16 1015.1 1014.9 0.0
21/11:30am 28.9 28.9 18.9 54 6.5 E 17 24 9 13 1015.4 1015.2 0.0
21/11:00am 28.8 29.0 19.4 56 6.1 E 17 26 9 14 1015.5 1015.3 0.0
21/10:30am 28.5 28.7 20.2 60 5.5 ESE 19 26 10 14 1015.7 1015.5 0.0
21/10:00am 28.1 29.0 20.1 62 5.2 ESE 15 22 8 12 1015.7 1015.5 0.0
21/09:30am 28.7 29.3 20.2 60 5.6 ESE 17 24 9 13 1015.5 1015.3 0.0
21/09:00am 28.2 28.8 20.2 62 5.3 E 17 24 9 13 1015.5 1015.3 0.0
21/08:30am 27.1 28.1 20.2 66 4.5 E 15 26 8 14 1015.4 1015.2 0.0
21/08:00am 26.7 27.0 19.6 65 4.6 E 17 22 9 12 1015.3 1015.1 0.0
21/07:30am 27.3 28.2 20.9 68 4.2 E 17 24 9 13 1014.7 1014.5 0.0
21/07:00am 26.1 28.6 21.7 77 2.9 E 11 17 6 9 1014.6 1014.4 0.0
21/06:30am 23.8 27.7 21.1 85 1.8 SE 2 7 1 4 1014.4 1014.2 0.0
21/06:00am 22.0 26.1 20.8 93 0.8 CALM 0 0 0 0 1014.1 1013.9 0.0
21/05:30am 20.8 24.3 19.6 93 0.8 CALM 0 0 0 0 1013.8 1013.6 0.0
21/05:00am 20.9 24.6 19.9 94 0.6 CALM 0 0 0 0 1013.4 1013.2 0.0
21/04:30am 20.6 24.0 19.4 93 0.8 CALM 0 0 0 0 1013.0 1012.8 0.0
21/04:00am 20.7 24.2 19.5 93 0.8 CALM 0 0 0 0 1012.9 1012.7 0.0
21/03:30am 20.9 24.4 19.6 92 0.8 CALM 0 0 0 0 1012.8 1012.6 0.0
21/03:09am 20.9 24.5 19.7 93 0.8 CALM 0 0 0 0 1012.7 1012.5 0.0
21/03:00am 21.2 24.9 20.0 93 0.8 CALM 0 0 0 0 1012.7 1012.5 0.0
21/02:46am 21.3 25.1 20.1 93 0.8 CALM 0 0 0 0 1012.7 1012.5 0.0
21/02:30am 21.1 24.8 19.9 93 0.8 CALM 0 0 0 0 1012.8 1012.6 0.0
21/02:00am 20.9 24.4 19.6 92 0.8 CALM 0 0 0 0 1012.9 1012.7 0.0
21/01:30am 21.2 24.4 19.8 92 0.9 S 2 7 1 4 1013.1 1012.9 0.0
21/01:00am 21.5 25.2 20.0 91 1.0 CALM 0 0 0 0 1013.3 1013.1 0.0
21/12:30am 21.7 25.5 20.2 91 1.0 CALM 0 0 0 0 1013.5 1013.3 0.0
21/12:00am 22.0 25.1 20.3 90 1.1 S 4 7 2 4 1013.9 1013.7 0.0
 
Date/Time
EST
Temp
°C
App
Temp
°C
Dew
Point
Rel
Hum
%
Delta-T
°C
Wind Press
QNH
hPa
Press
MSL
hPa
Rain
since 9 am
mm
Dir
 
Spd
km/h
Gust
km/h
Spd
kts
Gust
kts
20/11:30pm 22.8 26.7 20.3 86 1.6 CALM 0 6 0 3 1014.1 1013.9 0.0
20/11:00pm 23.4 26.4 20.9 86 1.6 ESE 6 9 3 5 1014.2 1014.0 0.0
20/10:30pm 23.8 26.7 21.1 85 1.8 E 7 9 4 5 1014.5 1014.3 0.0
20/10:00pm 23.6 26.8 21.7 89 1.3 E 7 11 4 6 1014.6 1014.4 0.0
20/09:30pm 22.3 26.0 20.8 91 1.0 E 2 7 1 4 1014.3 1014.1 0.0
20/09:00pm 22.4 26.5 20.7 90 1.1 CALM 0 0 0 0 1014.1 1013.9 0.0
20/08:30pm 22.8 26.4 20.5 87 1.5 ESE 2 6 1 3 1013.7 1013.5 0.0
20/08:00pm 23.3 26.9 20.6 85 1.8 SE 2 7 1 4 1013.3 1013.1 0.0
20/07:30pm 23.8 27.0 20.5 82 2.1 ESE 4 7 2 4 1013.1 1012.9 0.0
20/07:00pm 24.5 27.7 20.4 78 2.7 ESE 4 9 2 5 1012.8 1012.6 0.0
20/06:30pm 25.4 27.1 20.2 73 3.4 E 11 17 6 9 1012.4 1012.2 0.0
20/06:00pm 26.6 28.1 19.7 66 4.5 E 11 19 6 10 1012.0 1011.8 0.0
20/05:30pm 27.3 28.1 19.1 61 5.3 E 13 19 7 10 1011.7 1011.5 0.0
20/05:00pm 28.3 29.8 19.8 60 5.6 E 11 19 6 10 1011.5 1011.3 0.0
20/04:30pm 28.6 28.7 18.4 54 6.5 ESE 15 20 8 11 1011.2 1011.0 0.0
20/04:00pm 28.8 29.0 19.4 56 6.1 ESE 17 22 9 12 1011.2 1011.0 0.0
20/03:30pm 29.0 28.8 18.4 52 6.8 ESE 17 26 9 14 1011.2 1011.0 0.0
20/03:00pm 29.1 28.9 19.7 57 6.1 SE 20 30 11 16 1011.6 1011.4 0.0
20/02:30pm 29.7 30.2 21.1 60 5.7 SE 20 30 11 16 1011.8 1011.6 0.0
20/02:00pm 30.0 30.9 20.8 57 6.1 SE 17 24 9 13 1012.0 1011.8 0.0
20/01:30pm 29.0 29.1 19.9 58 6.0 ESE 19 28 10 15 1012.1 1011.9 0.0
20/01:00pm 29.5 29.7 20.1 57 6.2 SE 19 30 10 16 1012.4 1012.2 0.0
20/12:30pm 29.8 30.1 20.4 57 6.2 ESE 19 28 10 15 1012.8 1012.6 0.0
20/12:00pm 29.7 29.8 20.0 56 6.4 ESE 19 28 10 15 1013.0 1012.8 0.0
20/11:30am 30.1 29.4 16.5 44 8.5 SE 15 26 8 14 1013.3 1013.1 0.0
20/11:00am 30.0 30.3 18.8 51 7.2 SE 15 24 8 13 1013.5 1013.3 0.0
20/10:30am 29.5 29.5 18.0 50 7.3 ESE 15 24 8 13 1013.8 1013.6 0.0
20/10:00am 30.4 30.0 17.1 44 8.4 ESE 15 22 8 12 1013.6 1013.4 0.0
20/09:30am 29.4 30.5 19.7 56 6.3 SE 13 19 7 10 1013.5 1013.3 0.0
20/09:00am 28.5 31.2 21.3 65 4.8 SE 9 17 5 9 1013.2 1013.0 15.8
20/08:30am 27.8 30.5 21.3 67 4.3 SE 9 17 5 9 1013.2 1013.0 15.8
20/08:00am 26.5 31.3 22.1 77 3.0 CALM 0 6 0 3 1013.1 1012.9 15.6
20/07:30am 25.1 29.6 22.2 84 1.9 SSW 2 7 1 4 1013.1 1012.9 15.6
20/07:00am 23.0 27.4 21.3 90 1.1 CALM 0 0 0 0 1012.7 1012.5 15.6
20/06:48am 22.1 26.2 20.7 92 0.9 CALM 0 0 0 0 1012.6 1012.4 15.6
20/06:43am 21.8 25.7 20.4 92 0.9 CALM 0 0 0 0 1012.5 1012.3 15.6
20/06:30am 21.2 25.0 20.2 94 0.6 CALM 0 0 0 0 1012.4 1012.2 15.6
20/06:00am 19.6 22.8 18.8 95 0.5 CALM 0 0 0 0 1012.1 1011.9 15.6
20/05:30am 19.1 22.0 18.3 95 0.5 CALM 0 0 0 0 1011.7 1011.5 15.6
20/05:00am 19.0 21.9 18.2 95 0.5 CALM 0 0 0 0 1011.3 1011.1 15.6
20/04:30am 19.1 22.0 18.3 95 0.5 CALM 0 0 0 0 1011.1 1010.9 15.6
20/04:00am 19.5 22.6 18.7 95 0.5 CALM 0 0 0 0 1011.0 1010.8 15.6
20/03:47am 19.5 22.6 18.7 95 0.5 CALM 0 0 0 0 1010.9 1010.7 15.6
20/03:30am 19.7 22.9 18.9 95 0.5 CALM 0 0 0 0 1011.0 1010.8 15.6
20/03:00am 19.9 23.1 18.9 94 0.6 CALM 0 0 0 0 1011.1 1010.9 15.6
20/02:30am 20.1 23.5 19.3 95 0.5 CALM 0 0 0 0 1011.1 1010.9 15.6
20/02:00am 20.6 24.2 19.8 95 0.5 CALM 0 0 0 0 1011.2 1011.0 15.6
20/01:30am 20.7 24.4 19.9 95 0.5 CALM 0 0 0 0 1011.4 1011.2 15.6
20/01:00am 20.9 24.6 19.9 94 0.6 CALM 0 0 0 0 1011.7 1011.5 15.6
20/12:30am 20.9 24.6 19.9 94 0.6 CALM 0 0 0 0 1012.0 1011.8 15.6
20/12:00am 21.3 25.1 20.1 93 0.8 CALM 0 0 0 0 1012.4 1012.2 15.6
 
Date/Time
EST
Temp
°C
App
Temp
°C
Dew
Point
Rel
Hum
%
Delta-T
°C
Wind Press
QNH
hPa
Press
MSL
hPa
Rain
since 9 am
mm
Dir
 
Spd
km/h
Gust
km/h
Spd
kts
Gust
kts
19/11:30pm 21.5 25.4 20.3 93 0.8 CALM 0 0 0 0 1012.7 1012.5 15.6
19/11:17pm 21.7 25.7 20.5 93 0.8 CALM 0 0 0 0 1012.7 1012.5 15.6
19/11:01pm 21.8 25.8 20.6 93 0.8 CALM 0 0 0 0 1013.0 1012.8 15.6
19/11:00pm 21.8 25.8 20.6 93 0.8 CALM 0 0 0 0 1013.0 1012.8 15.6

Other Formats:

Comma delimited format used in spreadsheet applications
http://www.bom.gov.au/fwo/IDQ60801/IDQ60801.94370.axf

JavaScript Object Notation format (JSON) in row-major order
http://www.bom.gov.au/fwo/IDQ60801/IDQ60801.94370.json